sensor_id;sensor_type;location;lat;lon;timestamp;P1;durP1;ratioP1;P2;durP2;ratioP2
17773;SDS011;9011;33.236;-97.118;2023-04-24T00:00:55;3.08;;;1.30;;
17773;SDS011;9011;33.236;-97.118;2023-04-24T00:03:27;2.30;;;1.60;;
17773;SDS011;9011;33.236;-97.118;2023-04-24T00:05:59;2.30;;;1.58;;
17773;SDS011;9011;33.236;-97.118;2023-04-24T00:08:30;1.48;;;1.20;;
17773;SDS011;9011;33.236;-97.118;2023-04-24T00:10:59;2.30;;;1.60;;
17773;SDS011;9011;33.236;-97.118;2023-04-24T00:13:30;2.38;;;1.70;;
17773;SDS011;9011;33.236;-97.118;2023-04-24T00:15:59;4.35;;;1.40;;
17773;SDS011;9011;33.236;-97.118;2023-04-24T00:18:27;2.45;;;1.35;;
17773;SDS011;9011;33.236;-97.118;2023-04-24T00:20:56;3.03;;;1.75;;
17773;SDS011;9011;33.236;-97.118;2023-04-24T00:23:25;2.13;;;1.50;;
17773;SDS011;9011;33.236;-97.118;2023-04-24T00:25:53;2.42;;;1.73;;
17773;SDS011;9011;33.236;-97.118;2023-04-24T00:28:27;2.00;;;1.50;;
17773;SDS011;9011;33.236;-97.118;2023-04-24T00:30:58;2.45;;;1.63;;
17773;SDS011;9011;33.236;-97.118;2023-04-24T00:33:27;4.07;;;1.60;;
17773;SDS011;9011;33.236;-97.118;2023-04-24T00:35:58;2.20;;;1.48;;
17773;SDS011;9011;33.236;-97.118;2023-04-24T00:38:29;3.42;;;1.80;;
17773;SDS011;9011;33.236;-97.118;2023-04-24T00:40:57;1.88;;;1.63;;
17773;SDS011;9011;33.236;-97.118;2023-04-24T00:43:26;3.33;;;1.70;;
17773;SDS011;9011;33.236;-97.118;2023-04-24T00:46:07;2.13;;;1.70;;
17773;SDS011;9011;33.236;-97.118;2023-04-24T00:48:40;2.10;;;1.42;;
17773;SDS011;9011;33.236;-97.118;2023-04-24T00:51:09;2.08;;;1.73;;
17773;SDS011;9011;33.236;-97.118;2023-04-24T00:53:42;2.00;;;1.48;;
17773;SDS011;9011;33.236;-97.118;2023-04-24T00:56:14;2.53;;;1.70;;
17773;SDS011;9011;33.236;-97.118;2023-04-24T00:58:48;1.75;;;1.30;;
17773;SDS011;9011;33.236;-97.118;2023-04-24T01:01:26;1.45;;;1.35;;
17773;SDS011;9011;33.236;-97.118;2023-04-24T01:03:55;1.65;;;1.50;;
17773;SDS011;9011;33.236;-97.118;2023-04-24T01:06:35;2.22;;;1.25;;
17773;SDS011;9011;33.236;-97.118;2023-04-24T01:09:13;2.60;;;1.55;;
17773;SDS011;9011;33.236;-97.118;2023-04-24T01:11:45;2.13;;;1.95;;
17773;SDS011;9011;33.236;-97.118;2023-04-24T01:14:19;1.60;;;1.50;;
17773;SDS011;9011;33.236;-97.118;2023-04-24T01:16:53;1.77;;;1.65;;
17773;SDS011;9011;33.236;-97.118;2023-04-24T01:19:25;1.42;;;1.30;;
17773;SDS011;9011;33.236;-97.118;2023-04-24T01:21:54;2.65;;;1.63;;
17773;SDS011;9011;33.236;-97.118;2023-04-24T01:24:30;3.05;;;1.95;;
17773;SDS011;9011;33.236;-97.118;2023-04-24T01:27:02;1.80;;;1.60;;
17773;SDS011;9011;33.236;-97.118;2023-04-24T01:29:31;2.83;;;1.60;;
17773;SDS011;9011;33.236;-97.118;2023-04-24T01:32:02;2.53;;;1.33;;
17773;SDS011;9011;33.236;-97.118;2023-04-24T01:34:32;7.15;;;1.90;;
17773;SDS011;9011;33.236;-97.118;2023-04-24T01:37:01;2.85;;;1.83;;
17773;SDS011;9011;33.236;-97.118;2023-04-24T01:39:35;2.22;;;2.03;;
17773;SDS011;9011;33.236;-97.118;2023-04-24T01:42:06;5.82;;;2.10;;
17773;SDS011;9011;33.236;-97.118;2023-04-24T01:44:35;2.35;;;1.90;;
17773;SDS011;9011;33.236;-97.118;2023-04-24T01:47:05;1.73;;;1.60;;
17773;SDS011;9011;33.236;-97.118;2023-04-24T01:49:43;2.45;;;1.80;;
17773;SDS011;9011;33.236;-97.118;2023-04-24T01:52:12;2.17;;;1.85;;
17773;SDS011;9011;33.236;-97.118;2023-04-24T01:54:43;2.33;;;1.88;;
17773;SDS011;9011;33.236;-97.118;2023-04-24T01:57:15;3.33;;;1.75;;
17773;SDS011;9011;33.236;-97.118;2023-04-24T01:59:49;3.58;;;2.17;;
17773;SDS011;9011;33.236;-97.118;2023-04-24T02:02:21;2.85;;;2.05;;
17773;SDS011;9011;33.236;-97.118;2023-04-24T02:04:52;2.42;;;2.00;;
17773;SDS011;9011;33.236;-97.118;2023-04-24T02:07:25;2.58;;;1.83;;
17773;SDS011;9011;33.236;-97.118;2023-04-24T02:10:01;3.05;;;2.17;;
17773;SDS011;9011;33.236;-97.118;2023-04-24T02:12:31;2.10;;;1.90;;
17773;SDS011;9011;33.236;-97.118;2023-04-24T02:15:00;5.70;;;2.30;;
17773;SDS011;9011;33.236;-97.118;2023-04-24T02:17:28;6.50;;;2.20;;
17773;SDS011;9011;33.236;-97.118;2023-04-24T02:19:59;4.32;;;2.30;;
17773;SDS011;9011;33.236;-97.118;2023-04-24T02:22:28;3.30;;;2.50;;
17773;SDS011;9011;33.236;-97.118;2023-04-24T02:25:00;4.20;;;2.20;;
17773;SDS011;9011;33.236;-97.118;2023-04-24T02:27:32;5.13;;;2.28;;
17773;SDS011;9011;33.236;-97.118;2023-04-24T02:30:09;2.85;;;2.60;;
17773;SDS011;9011;33.236;-97.118;2023-04-24T02:32:39;3.08;;;2.78;;
17773;SDS011;9011;33.236;-97.118;2023-04-24T02:35:09;3.08;;;2.70;;
17773;SDS011;9011;33.236;-97.118;2023-04-24T02:37:38;3.10;;;2.70;;
17773;SDS011;9011;33.236;-97.118;2023-04-24T02:40:11;3.28;;;2.65;;
17773;SDS011;9011;33.236;-97.118;2023-04-24T02:42:40;2.75;;;2.55;;
17773;SDS011;9011;33.236;-97.118;2023-04-24T02:45:12;2.53;;;2.33;;
17773;SDS011;9011;33.236;-97.118;2023-04-24T02:47:41;4.55;;;3.25;;
17773;SDS011;9011;33.236;-97.118;2023-04-24T02:50:13;3.40;;;3.00;;
17773;SDS011;9011;33.236;-97.118;2023-04-24T02:52:41;2.85;;;2.50;;
17773;SDS011;9011;33.236;-97.118;2023-04-24T02:55:27;2.85;;;2.55;;
17773;SDS011;9011;33.236;-97.118;2023-04-24T02:58:01;4.30;;;2.97;;
17773;SDS011;9011;33.236;-97.118;2023-04-24T03:00:29;3.85;;;3.20;;
17773;SDS011;9011;33.236;-97.118;2023-04-24T03:02:58;3.23;;;2.90;;
17773;SDS011;9011;33.236;-97.118;2023-04-24T03:05:27;3.37;;;3.07;;
17773;SDS011;9011;33.236;-97.118;2023-04-24T03:07:56;3.45;;;3.15;;
17773;SDS011;9011;33.236;-97.118;2023-04-24T03:10:26;6.17;;;3.23;;
17773;SDS011;9011;33.236;-97.118;2023-04-24T03:12:54;5.20;;;3.22;;
17773;SDS011;9011;33.236;-97.118;2023-04-24T03:15:23;7.00;;;3.30;;
17773;SDS011;9011;33.236;-97.118;2023-04-24T03:17:52;3.43;;;3.10;;
17773;SDS011;9011;33.236;-97.118;2023-04-24T03:20:20;3.83;;;2.83;;
17773;SDS011;9011;33.236;-97.118;2023-04-24T03:22:49;3.27;;;2.97;;
17773;SDS011;9011;33.236;-97.118;2023-04-24T03:25:17;5.43;;;3.07;;
17773;SDS011;9011;33.236;-97.118;2023-04-24T03:27:47;3.53;;;3.20;;
17773;SDS011;9011;33.236;-97.118;2023-04-24T03:30:16;3.85;;;3.33;;
17773;SDS011;9011;33.236;-97.118;2023-04-24T03:32:45;3.97;;;3.13;;
17773;SDS011;9011;33.236;-97.118;2023-04-24T03:35:13;3.33;;;3.03;;
17773;SDS011;9011;33.236;-97.118;2023-04-24T03:37:42;5.77;;;3.37;;
17773;SDS011;9011;33.236;-97.118;2023-04-24T03:40:10;4.77;;;3.20;;
17773;SDS011;9011;33.236;-97.118;2023-04-24T03:42:39;4.13;;;2.90;;
17773;SDS011;9011;33.236;-97.118;2023-04-24T03:45:10;4.70;;;3.10;;
17773;SDS011;9011;33.236;-97.118;2023-04-24T03:47:38;3.50;;;2.90;;
17773;SDS011;9011;33.236;-97.118;2023-04-24T03:50:07;3.90;;;3.07;;
17773;SDS011;9011;33.236;-97.118;2023-04-24T03:52:36;3.47;;;2.47;;
17773;SDS011;9011;33.236;-97.118;2023-04-24T03:55:05;3.40;;;2.83;;
17773;SDS011;9011;33.236;-97.118;2023-04-24T03:57:34;3.17;;;2.87;;
17773;SDS011;9011;33.236;-97.118;2023-04-24T04:00:03;4.97;;;2.83;;
17773;SDS011;9011;33.236;-97.118;2023-04-24T04:02:35;4.93;;;3.07;;
17773;SDS011;9011;33.236;-97.118;2023-04-24T04:05:04;5.57;;;3.10;;
17773;SDS011;9011;33.236;-97.118;2023-04-24T04:07:33;3.47;;;2.93;;
17773;SDS011;9011;33.236;-97.118;2023-04-24T04:10:02;5.73;;;2.90;;
17773;SDS011;9011;33.236;-97.118;2023-04-24T04:12:32;2.97;;;2.60;;
17773;SDS011;9011;33.236;-97.118;2023-04-24T04:15:01;3.30;;;2.80;;
17773;SDS011;9011;33.236;-97.118;2023-04-24T04:17:30;3.50;;;3.20;;
17773;SDS011;9011;33.236;-97.118;2023-04-24T04:20:00;5.53;;;2.97;;
17773;SDS011;9011;33.236;-97.118;2023-04-24T04:22:32;3.63;;;3.13;;
17773;SDS011;9011;33.236;-97.118;2023-04-24T04:25:01;4.50;;;3.20;;
17773;SDS011;9011;33.236;-97.118;2023-04-24T04:27:29;4.10;;;3.33;;
17773;SDS011;9011;33.236;-97.118;2023-04-24T04:29:59;5.17;;;3.10;;
17773;SDS011;9011;33.236;-97.118;2023-04-24T04:32:30;5.07;;;3.90;;
17773;SDS011;9011;33.236;-97.118;2023-04-24T04:35:00;3.67;;;3.23;;
17773;SDS011;9011;33.236;-97.118;2023-04-24T04:37:29;4.17;;;3.17;;
17773;SDS011;9011;33.236;-97.118;2023-04-24T04:39:58;3.67;;;3.00;;
17773;SDS011;9011;33.236;-97.118;2023-04-24T04:42:31;4.47;;;3.80;;
17773;SDS011;9011;33.236;-97.118;2023-04-24T04:45:01;5.17;;;3.63;;
17773;SDS011;9011;33.236;-97.118;2023-04-24T04:47:29;4.20;;;3.30;;
17773;SDS011;9011;33.236;-97.118;2023-04-24T04:50:00;4.60;;;3.40;;
17773;SDS011;9011;33.236;-97.118;2023-04-24T04:52:29;3.40;;;3.10;;
17773;SDS011;9011;33.236;-97.118;2023-04-24T04:54:57;3.97;;;3.57;;
17773;SDS011;9011;33.236;-97.118;2023-04-24T04:57:26;3.70;;;3.17;;
17773;SDS011;9011;33.236;-97.118;2023-04-24T04:59:54;5.40;;;3.73;;
17773;SDS011;9011;33.236;-97.118;2023-04-24T05:02:22;4.40;;;3.27;;
17773;SDS011;9011;33.236;-97.118;2023-04-24T05:04:51;4.77;;;3.30;;
17773;SDS011;9011;33.236;-97.118;2023-04-24T05:07:21;4.17;;;3.27;;
17773;SDS011;9011;33.236;-97.118;2023-04-24T05:09:49;13.13;;;3.80;;
17773;SDS011;9011;33.236;-97.118;2023-04-24T05:12:18;5.73;;;2.93;;
17773;SDS011;9011;33.236;-97.118;2023-04-24T05:14:46;3.23;;;2.93;;
17773;SDS011;9011;33.236;-97.118;2023-04-24T05:17:14;3.57;;;3.23;;
17773;SDS011;9011;33.236;-97.118;2023-04-24T05:19:43;3.17;;;2.77;;
17773;SDS011;9011;33.236;-97.118;2023-04-24T05:22:11;3.40;;;2.83;;
17773;SDS011;9011;33.236;-97.118;2023-04-24T05:24:41;3.77;;;3.30;;
17773;SDS011;9011;33.236;-97.118;2023-04-24T05:27:10;5.07;;;3.23;;
17773;SDS011;9011;33.236;-97.118;2023-04-24T05:29:38;4.17;;;3.00;;
17773;SDS011;9011;33.236;-97.118;2023-04-24T05:32:07;3.20;;;2.93;;
17773;SDS011;9011;33.236;-97.118;2023-04-24T05:34:35;3.43;;;3.13;;
17773;SDS011;9011;33.236;-97.118;2023-04-24T05:37:03;3.70;;;3.20;;
17773;SDS011;9011;33.236;-97.118;2023-04-24T05:39:35;3.37;;;2.87;;
17773;SDS011;9011;33.236;-97.118;2023-04-24T05:42:05;3.77;;;3.17;;
17773;SDS011;9011;33.236;-97.118;2023-04-24T05:44:33;3.27;;;2.73;;
17773;SDS011;9011;33.236;-97.118;2023-04-24T05:47:02;3.97;;;3.03;;
17773;SDS011;9011;33.236;-97.118;2023-04-24T05:49:30;3.40;;;3.10;;
17773;SDS011;9011;33.236;-97.118;2023-04-24T05:51:58;3.80;;;3.30;;
17773;SDS011;9011;33.236;-97.118;2023-04-24T05:54:27;7.50;;;3.13;;
17773;SDS011;9011;33.236;-97.118;2023-04-24T05:56:55;5.03;;;3.20;;
17773;SDS011;9011;33.236;-97.118;2023-04-24T05:59:25;3.93;;;2.90;;
17773;SDS011;9011;33.236;-97.118;2023-04-24T06:01:53;3.03;;;2.63;;
17773;SDS011;9011;33.236;-97.118;2023-04-24T06:04:22;3.73;;;3.00;;
17773;SDS011;9011;33.236;-97.118;2023-04-24T06:06:50;3.17;;;2.60;;
17773;SDS011;9011;33.236;-97.118;2023-04-24T06:09:21;5.17;;;3.00;;
17773;SDS011;9011;33.236;-97.118;2023-04-24T06:11:50;3.57;;;2.90;;
17773;SDS011;9011;33.236;-97.118;2023-04-24T06:14:19;3.30;;;3.00;;
17773;SDS011;9011;33.236;-97.118;2023-04-24T06:16:49;4.40;;;3.17;;
17773;SDS011;9011;33.236;-97.118;2023-04-24T06:19:17;3.60;;;2.93;;
17773;SDS011;9011;33.236;-97.118;2023-04-24T06:21:46;2.87;;;2.67;;
17773;SDS011;9011;33.236;-97.118;2023-04-24T06:24:14;3.50;;;2.97;;
17773;SDS011;9011;33.236;-97.118;2023-04-24T06:26:43;3.70;;;3.30;;
17773;SDS011;9011;33.236;-97.118;2023-04-24T06:29:11;3.97;;;3.33;;
17773;SDS011;9011;33.236;-97.118;2023-04-24T06:31:39;3.43;;;2.77;;
17773;SDS011;9011;33.236;-97.118;2023-04-24T06:34:09;4.80;;;3.20;;
17773;SDS011;9011;33.236;-97.118;2023-04-24T06:36:38;3.87;;;2.90;;
17773;SDS011;9011;33.236;-97.118;2023-04-24T06:39:06;3.53;;;3.23;;
17773;SDS011;9011;33.236;-97.118;2023-04-24T06:41:34;4.87;;;3.50;;
17773;SDS011;9011;33.236;-97.118;2023-04-24T06:44:03;3.20;;;2.90;;
17773;SDS011;9011;33.236;-97.118;2023-04-24T06:46:31;4.33;;;3.00;;
17773;SDS011;9011;33.236;-97.118;2023-04-24T06:49:00;4.23;;;3.30;;
17773;SDS011;9011;33.236;-97.118;2023-04-24T06:51:30;3.87;;;3.00;;
17773;SDS011;9011;33.236;-97.118;2023-04-24T06:53:58;4.83;;;3.23;;
17773;SDS011;9011;33.236;-97.118;2023-04-24T06:56:27;3.23;;;2.80;;
17773;SDS011;9011;33.236;-97.118;2023-04-24T06:58:55;3.43;;;2.83;;
17773;SDS011;9011;33.236;-97.118;2023-04-24T07:01:24;3.13;;;2.77;;
17773;SDS011;9011;33.236;-97.118;2023-04-24T07:03:52;4.17;;;3.17;;
17773;SDS011;9011;33.236;-97.118;2023-04-24T07:06:21;3.70;;;3.40;;
17773;SDS011;9011;33.236;-97.118;2023-04-24T07:08:51;5.93;;;3.60;;
17773;SDS011;9011;33.236;-97.118;2023-04-24T07:11:19;3.47;;;3.00;;
17773;SDS011;9011;33.236;-97.118;2023-04-24T07:13:48;3.57;;;3.10;;
17773;SDS011;9011;33.236;-97.118;2023-04-24T07:16:16;4.70;;;3.40;;
17773;SDS011;9011;33.236;-97.118;2023-04-24T07:18:44;4.63;;;3.50;;
17773;SDS011;9011;33.236;-97.118;2023-04-24T07:21:13;3.50;;;3.07;;
17773;SDS011;9011;33.236;-97.118;2023-04-24T07:23:41;4.13;;;3.40;;
17773;SDS011;9011;33.236;-97.118;2023-04-24T07:26:11;4.37;;;3.33;;
17773;SDS011;9011;33.236;-97.118;2023-04-24T07:28:40;3.30;;;2.97;;
17773;SDS011;9011;33.236;-97.118;2023-04-24T07:31:08;3.43;;;3.13;;
17773;SDS011;9011;33.236;-97.118;2023-04-24T07:33:38;3.50;;;3.20;;
17773;SDS011;9011;33.236;-97.118;2023-04-24T07:36:06;4.30;;;3.40;;
17773;SDS011;9011;33.236;-97.118;2023-04-24T07:38:40;3.97;;;3.57;;
17773;SDS011;9011;33.236;-97.118;2023-04-24T07:41:09;3.90;;;3.50;;
17773;SDS011;9011;33.236;-97.118;2023-04-24T07:43:39;3.83;;;3.20;;
17773;SDS011;9011;33.236;-97.118;2023-04-24T07:46:07;4.57;;;3.80;;
17773;SDS011;9011;33.236;-97.118;2023-04-24T07:48:36;4.53;;;3.40;;
17773;SDS011;9011;33.236;-97.118;2023-04-24T07:51:04;4.20;;;3.63;;
17773;SDS011;9011;33.236;-97.118;2023-04-24T07:53:35;6.90;;;3.63;;
17773;SDS011;9011;33.236;-97.118;2023-04-24T07:56:04;4.07;;;3.07;;
17773;SDS011;9011;33.236;-97.118;2023-04-24T07:58:34;4.10;;;3.63;;
17773;SDS011;9011;33.236;-97.118;2023-04-24T08:01:02;5.93;;;3.60;;
17773;SDS011;9011;33.236;-97.118;2023-04-24T08:03:31;3.77;;;3.37;;
17773;SDS011;9011;33.236;-97.118;2023-04-24T08:05:59;5.60;;;4.10;;
17773;SDS011;9011;33.236;-97.118;2023-04-24T08:08:27;5.23;;;3.90;;
17773;SDS011;9011;33.236;-97.118;2023-04-24T08:10:56;4.83;;;3.60;;
17773;SDS011;9011;33.236;-97.118;2023-04-24T08:13:24;4.53;;;4.00;;
17773;SDS011;9011;33.236;-97.118;2023-04-24T08:15:54;5.20;;;3.40;;
17773;SDS011;9011;33.236;-97.118;2023-04-24T08:18:23;5.17;;;3.07;;
17773;SDS011;9011;33.236;-97.118;2023-04-24T08:20:51;5.00;;;3.50;;
17773;SDS011;9011;33.236;-97.118;2023-04-24T08:23:20;6.37;;;3.83;;
17773;SDS011;9011;33.236;-97.118;2023-04-24T08:25:49;7.43;;;4.23;;
17773;SDS011;9011;33.236;-97.118;2023-04-24T08:28:17;4.80;;;3.50;;
17773;SDS011;9011;33.236;-97.118;2023-04-24T08:30:45;4.87;;;3.83;;
17773;SDS011;9011;33.236;-97.118;2023-04-24T08:33:19;5.00;;;3.30;;
17773;SDS011;9011;33.236;-97.118;2023-04-24T08:35:48;4.57;;;3.63;;
17773;SDS011;9011;33.236;-97.118;2023-04-24T08:38:16;6.07;;;3.70;;
17773;SDS011;9011;33.236;-97.118;2023-04-24T08:40:44;4.57;;;3.33;;
17773;SDS011;9011;33.236;-97.118;2023-04-24T08:43:14;4.57;;;3.50;;
17773;SDS011;9011;33.236;-97.118;2023-04-24T08:45:44;4.97;;;4.37;;
17773;SDS011;9011;33.236;-97.118;2023-04-24T08:48:12;4.70;;;3.77;;
17773;SDS011;9011;33.236;-97.118;2023-04-24T08:50:43;4.63;;;3.27;;
17773;SDS011;9011;33.236;-97.118;2023-04-24T08:53:12;4.10;;;3.60;;
17773;SDS011;9011;33.236;-97.118;2023-04-24T08:55:41;7.40;;;3.87;;
17773;SDS011;9011;33.236;-97.118;2023-04-24T08:58:15;5.63;;;3.90;;
17773;SDS011;9011;33.236;-97.118;2023-04-24T09:00:44;4.57;;;3.90;;
17773;SDS011;9011;33.236;-97.118;2023-04-24T09:03:13;5.87;;;4.13;;
17773;SDS011;9011;33.236;-97.118;2023-04-24T09:05:46;5.37;;;3.40;;
17773;SDS011;9011;33.236;-97.118;2023-04-24T09:08:16;4.77;;;3.57;;
17773;SDS011;9011;33.236;-97.118;2023-04-24T09:10:45;7.47;;;3.97;;
17773;SDS011;9011;33.236;-97.118;2023-04-24T09:13:14;4.80;;;3.83;;
17773;SDS011;9011;33.236;-97.118;2023-04-24T09:15:42;5.47;;;3.37;;
17773;SDS011;9011;33.236;-97.118;2023-04-24T09:18:11;4.77;;;3.60;;
17773;SDS011;9011;33.236;-97.118;2023-04-24T09:23:28;4.90;;;4.07;;
17773;SDS011;9011;33.236;-97.118;2023-04-24T09:25:57;4.80;;;3.43;;
17773;SDS011;9011;33.236;-97.118;2023-04-24T09:28:28;4.83;;;4.00;;
17773;SDS011;9011;33.236;-97.118;2023-04-24T09:31:04;5.60;;;3.83;;
17773;SDS011;9011;33.236;-97.118;2023-04-24T09:33:33;5.47;;;4.17;;
17773;SDS011;9011;33.236;-97.118;2023-04-24T09:36:04;4.03;;;3.47;;
17773;SDS011;9011;33.236;-97.118;2023-04-24T09:38:33;3.97;;;3.57;;
17773;SDS011;9011;33.236;-97.118;2023-04-24T09:41:04;4.40;;;4.00;;
17773;SDS011;9011;33.236;-97.118;2023-04-24T09:43:34;6.73;;;4.30;;
17773;SDS011;9011;33.236;-97.118;2023-04-24T09:46:04;5.10;;;4.10;;
17773;SDS011;9011;33.236;-97.118;2023-04-24T09:48:35;4.57;;;3.83;;
17773;SDS011;9011;33.236;-97.118;2023-04-24T09:51:06;4.90;;;4.37;;
17773;SDS011;9011;33.236;-97.118;2023-04-24T09:53:36;5.83;;;3.60;;
17773;SDS011;9011;33.236;-97.118;2023-04-24T09:56:06;5.00;;;3.80;;
17773;SDS011;9011;33.236;-97.118;2023-04-24T09:58:35;4.70;;;4.20;;
17773;SDS011;9011;33.236;-97.118;2023-04-24T10:01:04;4.60;;;4.00;;
17773;SDS011;9011;33.236;-97.118;2023-04-24T10:03:32;6.70;;;4.00;;
17773;SDS011;9011;33.236;-97.118;2023-04-24T10:06:01;4.33;;;3.87;;
17773;SDS011;9011;33.236;-97.118;2023-04-24T10:08:35;4.80;;;4.10;;
17773;SDS011;9011;33.236;-97.118;2023-04-24T10:11:04;4.83;;;3.73;;
17773;SDS011;9011;33.236;-97.118;2023-04-24T10:13:33;6.87;;;3.53;;
17773;SDS011;9011;33.236;-97.118;2023-04-24T10:16:03;5.60;;;3.80;;
17773;SDS011;9011;33.236;-97.118;2023-04-24T10:18:32;5.40;;;4.17;;
17773;SDS011;9011;33.236;-97.118;2023-04-24T10:21:01;4.87;;;3.87;;
17773;SDS011;9011;33.236;-97.118;2023-04-24T10:23:30;6.30;;;4.40;;
17773;SDS011;9011;33.236;-97.118;2023-04-24T10:26:00;5.33;;;3.50;;
17773;SDS011;9011;33.236;-97.118;2023-04-24T10:28:30;5.23;;;3.90;;
17773;SDS011;9011;33.236;-97.118;2023-04-24T10:30:59;5.43;;;4.20;;
17773;SDS011;9011;33.236;-97.118;2023-04-24T10:33:28;5.87;;;3.57;;
17773;SDS011;9011;33.236;-97.118;2023-04-24T10:35:57;4.57;;;3.70;;
17773;SDS011;9011;33.236;-97.118;2023-04-24T10:38:26;6.03;;;4.20;;
17773;SDS011;9011;33.236;-97.118;2023-04-24T10:40:57;4.67;;;3.93;;
17773;SDS011;9011;33.236;-97.118;2023-04-24T10:43:43;5.40;;;3.70;;
17773;SDS011;9011;33.236;-97.118;2023-04-24T10:46:16;4.43;;;3.90;;
17773;SDS011;9011;33.236;-97.118;2023-04-24T10:48:52;6.17;;;3.50;;
17773;SDS011;9011;33.236;-97.118;2023-04-24T10:51:21;8.17;;;4.23;;
17773;SDS011;9011;33.236;-97.118;2023-04-24T10:53:51;6.27;;;4.10;;
17773;SDS011;9011;33.236;-97.118;2023-04-24T10:56:21;4.97;;;3.50;;
17773;SDS011;9011;33.236;-97.118;2023-04-24T10:58:50;6.20;;;3.50;;
17773;SDS011;9011;33.236;-97.118;2023-04-24T11:01:23;7.00;;;4.53;;
17773;SDS011;9011;33.236;-97.118;2023-04-24T11:03:54;5.77;;;4.13;;
17773;SDS011;9011;33.236;-97.118;2023-04-24T11:06:28;6.10;;;4.03;;
17773;SDS011;9011;33.236;-97.118;2023-04-24T11:09:01;5.17;;;4.27;;
17773;SDS011;9011;33.236;-97.118;2023-04-24T11:11:34;4.80;;;4.00;;
17773;SDS011;9011;33.236;-97.118;2023-04-24T11:14:08;5.93;;;4.20;;
17773;SDS011;9011;33.236;-97.118;2023-04-24T11:16:42;5.50;;;4.33;;
17773;SDS011;9011;33.236;-97.118;2023-04-24T11:19:17;5.70;;;4.43;;
17773;SDS011;9011;33.236;-97.118;2023-04-24T11:21:49;5.33;;;4.00;;
17773;SDS011;9011;33.236;-97.118;2023-04-24T11:24:23;6.13;;;4.43;;
17773;SDS011;9011;33.236;-97.118;2023-04-24T11:26:58;5.10;;;3.77;;
17773;SDS011;9011;33.236;-97.118;2023-04-24T11:29:38;5.63;;;4.53;;
17773;SDS011;9011;33.236;-97.118;2023-04-24T11:32:15;6.07;;;4.20;;
17773;SDS011;9011;33.236;-97.118;2023-04-24T11:34:45;6.00;;;4.63;;
17773;SDS011;9011;33.236;-97.118;2023-04-24T11:37:14;5.60;;;4.37;;
17773;SDS011;9011;33.236;-97.118;2023-04-24T11:39:43;4.30;;;3.87;;
17773;SDS011;9011;33.236;-97.118;2023-04-24T11:42:15;4.23;;;3.80;;
17773;SDS011;9011;33.236;-97.118;2023-04-24T11:44:43;6.03;;;4.43;;
17773;SDS011;9011;33.236;-97.118;2023-04-24T11:47:13;6.00;;;4.37;;
17773;SDS011;9011;33.236;-97.118;2023-04-24T11:49:41;6.40;;;4.17;;
17773;SDS011;9011;33.236;-97.118;2023-04-24T11:52:09;5.57;;;4.30;;
17773;SDS011;9011;33.236;-97.118;2023-04-24T11:54:38;5.13;;;3.87;;
17773;SDS011;9011;33.236;-97.118;2023-04-24T11:57:17;6.87;;;4.23;;
17773;SDS011;9011;33.236;-97.118;2023-04-24T11:59:48;5.93;;;4.90;;
17773;SDS011;9011;33.236;-97.118;2023-04-24T12:02:22;6.23;;;4.77;;
17773;SDS011;9011;33.236;-97.118;2023-04-24T12:04:51;6.00;;;4.60;;
17773;SDS011;9011;33.236;-97.118;2023-04-24T12:07:21;5.30;;;4.70;;
17773;SDS011;9011;33.236;-97.118;2023-04-24T12:09:54;6.50;;;4.73;;
17773;SDS011;9011;33.236;-97.118;2023-04-24T12:12:26;7.73;;;5.50;;
17773;SDS011;9011;33.236;-97.118;2023-04-24T12:14:55;5.87;;;4.87;;
17773;SDS011;9011;33.236;-97.118;2023-04-24T12:17:25;8.20;;;4.73;;
17773;SDS011;9011;33.236;-97.118;2023-04-24T12:19:57;8.37;;;4.90;;
17773;SDS011;9011;33.236;-97.118;2023-04-24T12:22:26;6.57;;;4.90;;
17773;SDS011;9011;33.236;-97.118;2023-04-24T12:24:55;6.13;;;4.83;;
17773;SDS011;9011;33.236;-97.118;2023-04-24T12:27:26;7.73;;;4.80;;
17773;SDS011;9011;33.236;-97.118;2023-04-24T12:29:59;5.50;;;4.83;;
17773;SDS011;9011;33.236;-97.118;2023-04-24T12:32:28;7.07;;;5.07;;
17773;SDS011;9011;33.236;-97.118;2023-04-24T12:34:57;5.30;;;4.33;;
17773;SDS011;9011;33.236;-97.118;2023-04-24T12:37:26;6.20;;;4.90;;
17773;SDS011;9011;33.236;-97.118;2023-04-24T12:39:59;5.87;;;5.00;;
17773;SDS011;9011;33.236;-97.118;2023-04-24T12:42:33;7.27;;;4.70;;
17773;SDS011;9011;33.236;-97.118;2023-04-24T12:45:02;6.77;;;5.07;;
17773;SDS011;9011;33.236;-97.118;2023-04-24T12:47:31;4.93;;;4.30;;
17773;SDS011;9011;33.236;-97.118;2023-04-24T12:50:00;5.90;;;5.20;;
17773;SDS011;9011;33.236;-97.118;2023-04-24T12:52:29;5.97;;;4.60;;
17773;SDS011;9011;33.236;-97.118;2023-04-24T12:54:58;5.57;;;4.60;;
17773;SDS011;9011;33.236;-97.118;2023-04-24T12:57:28;5.97;;;4.33;;
17773;SDS011;9011;33.236;-97.118;2023-04-24T12:59:59;7.30;;;4.43;;
17773;SDS011;9011;33.236;-97.118;2023-04-24T13:02:28;5.23;;;4.73;;
17773;SDS011;9011;33.236;-97.118;2023-04-24T13:04:57;6.33;;;4.27;;
17773;SDS011;9011;33.236;-97.118;2023-04-24T13:07:26;6.63;;;4.63;;
17773;SDS011;9011;33.236;-97.118;2023-04-24T13:09:54;6.00;;;4.50;;
17773;SDS011;9011;33.236;-97.118;2023-04-24T13:12:23;5.23;;;4.73;;
17773;SDS011;9011;33.236;-97.118;2023-04-24T13:14:52;6.30;;;4.80;;
17773;SDS011;9011;33.236;-97.118;2023-04-24T13:17:23;5.77;;;4.27;;
17773;SDS011;9011;33.236;-97.118;2023-04-24T13:19:51;4.80;;;4.37;;
17773;SDS011;9011;33.236;-97.118;2023-04-24T13:22:21;5.67;;;4.67;;
17773;SDS011;9011;33.236;-97.118;2023-04-24T13:24:49;7.53;;;4.67;;
17773;SDS011;9011;33.236;-97.118;2023-04-24T13:27:18;7.30;;;4.77;;
17773;SDS011;9011;33.236;-97.118;2023-04-24T13:29:46;4.97;;;4.40;;
17773;SDS011;9011;33.236;-97.118;2023-04-24T13:32:14;6.67;;;4.90;;
17773;SDS011;9011;33.236;-97.118;2023-04-24T13:34:44;5.10;;;4.40;;
17773;SDS011;9011;33.236;-97.118;2023-04-24T13:37:13;5.73;;;4.80;;
17773;SDS011;9011;33.236;-97.118;2023-04-24T13:39:41;5.03;;;4.30;;
17773;SDS011;9011;33.236;-97.118;2023-04-24T13:42:09;4.40;;;4.00;;
17773;SDS011;9011;33.236;-97.118;2023-04-24T13:44:38;5.00;;;4.37;;
17773;SDS011;9011;33.236;-97.118;2023-04-24T13:47:07;5.90;;;3.97;;
17773;SDS011;9011;33.236;-97.118;2023-04-24T13:49:35;7.53;;;4.30;;
17773;SDS011;9011;33.236;-97.118;2023-04-24T13:52:05;7.10;;;5.03;;
17773;SDS011;9011;33.236;-97.118;2023-04-24T13:54:33;7.37;;;4.50;;
17773;SDS011;9011;33.236;-97.118;2023-04-24T13:57:03;8.17;;;4.50;;
17773;SDS011;9011;33.236;-97.118;2023-04-24T13:59:31;6.70;;;4.40;;
17773;SDS011;9011;33.236;-97.118;2023-04-24T14:01:59;4.43;;;4.03;;
17773;SDS011;9011;33.236;-97.118;2023-04-24T14:04:28;4.53;;;4.13;;
17773;SDS011;9011;33.236;-97.118;2023-04-24T14:06:56;4.40;;;3.93;;
17773;SDS011;9011;33.236;-97.118;2023-04-24T14:09:26;5.87;;;4.10;;
17773;SDS011;9011;33.236;-97.118;2023-04-24T14:11:54;6.13;;;3.90;;
17773;SDS011;9011;33.236;-97.118;2023-04-24T14:14:23;4.32;;;3.80;;
17773;SDS011;9011;33.236;-97.118;2023-04-24T14:16:51;4.65;;;3.33;;
17773;SDS011;9011;33.236;-97.118;2023-04-24T14:19:19;4.50;;;3.10;;
17773;SDS011;9011;33.236;-97.118;2023-04-24T14:21:48;3.40;;;3.10;;
17773;SDS011;9011;33.236;-97.118;2023-04-24T14:24:16;3.10;;;2.75;;
17773;SDS011;9011;33.236;-97.118;2023-04-24T14:26:46;3.40;;;3.10;;
17773;SDS011;9011;33.236;-97.118;2023-04-24T14:29:15;4.22;;;3.25;;
17773;SDS011;9011;33.236;-97.118;2023-04-24T14:31:43;6.63;;;2.88;;
17773;SDS011;9011;33.236;-97.118;2023-04-24T14:34:13;3.28;;;2.70;;
17773;SDS011;9011;33.236;-97.118;2023-04-24T14:36:41;3.47;;;2.95;;
17773;SDS011;9011;33.236;-97.118;2023-04-24T14:39:09;3.00;;;2.50;;
17773;SDS011;9011;33.236;-97.118;2023-04-24T14:41:38;3.42;;;2.83;;
17773;SDS011;9011;33.236;-97.118;2023-04-24T14:44:08;2.97;;;2.53;;
17773;SDS011;9011;33.236;-97.118;2023-04-24T14:46:36;2.53;;;2.20;;
17773;SDS011;9011;33.236;-97.118;2023-04-24T14:49:04;4.75;;;2.60;;
17773;SDS011;9011;33.236;-97.118;2023-04-24T14:51:35;2.67;;;2.47;;